Time;durP1;ratioP1;P1;durP2;ratioP2;P2;SDS_P1;SDS_P2;PMS_P1;PMS_P2;Temp;Humidity;BMP_temperature;BMP_pressure;BME280_temperature;BME280_humidity;BME280_pressure;Samples;Min_cycle;Max_cycle;Signal;HPM_P1;HPM_P2
2022/11/04 00:03:54;;;;;;;3.83;2.10;;;;;;;11.73;56.43;98984.56;10483272;28;20746;-71
2022/11/04 00:08:57;;;;;;;2.73;2.00;;;;;;;10.43;58.30;99025.13;10482630;28;20235;-71
2022/11/04 00:13:58;;;;;;;2.30;2.20;;;;;;;11.21;57.07;99021.13;10459770;28;20274;-70
2022/11/04 00:19:00;;;;;;;2.40;2.20;;;;;;;11.45;57.07;99007.06;10438838;28;20879;-71
2022/11/04 00:29:23;;;;;;;2.97;2.23;;;;;;;11.05;57.25;99073.22;10443401;28;20232;-73
2022/11/04 00:34:24;;;;;;;2.60;2.03;;;;;;;10.86;58.11;99081.03;10446575;28;20228;-70
2022/11/04 00:39:26;;;;;;;2.40;2.20;;;;;;;10.73;58.28;99058.75;10441698;28;20274;-71
2022/11/04 00:44:27;;;;;;;2.40;2.20;;;;;;;10.62;57.98;99065.53;10446330;28;20723;-69
2022/11/04 00:49:30;;;;;;;2.57;2.27;;;;;;;9.89;58.67;99098.13;10441825;28;20239;-70
2022/11/04 00:54:31;;;;;;;3.43;2.07;;;;;;;10.46;58.30;99088.94;10441598;28;20812;-70
2022/11/04 00:59:33;;;;;;;2.40;2.20;;;;;;;10.46;58.24;99085.41;10446247;28;20564;-70
2022/11/04 01:04:34;;;;;;;2.20;2.00;;;;;;;10.38;58.81;99074.88;10444957;28;20235;-70
2022/11/04 01:09:36;;;;;;;2.47;2.20;;;;;;;10.09;58.91;99076.84;10443781;28;20232;-70
2022/11/04 01:14:38;;;;;;;3.40;2.13;;;;;;;10.31;57.87;99090.94;10457958;28;20239;-71
2022/11/04 01:19:39;;;;;;;3.40;1.80;;;;;;;10.62;57.18;99094.94;10459427;28;20260;-70
2022/11/04 01:24:41;;;;;;;2.20;2.00;;;;;;;10.20;58.61;99096.84;10471614;28;20227;-71
2022/11/04 01:29:43;;;;;;;4.80;2.10;;;;;;;11.04;56.25;99080.44;10453795;28;20292;-70
2022/11/04 01:34:45;;;;;;;2.30;2.17;;;;;;;11.85;54.33;99088.47;10463269;28;20962;-71
2022/11/04 01:39:46;;;;;;;4.40;2.10;;;;;;;11.79;54.41;99092.78;10455559;28;20722;-70
2022/11/04 01:44:52;;;;;;;3.73;2.10;;;;;;;10.93;55.96;99110.47;10461400;28;20733;-70
2022/11/04 01:50:05;;;;;;;2.40;2.17;;;;;;;10.96;56.08;99123.47;10460811;28;20239;-71
2022/11/04 01:55:15;;;;;;;3.93;2.10;;;;;;;9.85;58.30;99128.94;10457397;28;20234;-70
2022/11/04 02:00:17;;;;;;;2.97;1.90;;;;;;;10.40;57.38;99123.69;10456558;28;20224;-70
2022/11/04 02:05:19;;;;;;;4.50;2.80;;;;;;;10.86;55.59;99106.97;10455212;28;20284;-71
2022/11/04 02:10:24;;;;;;;2.50;2.30;;;;;;;10.77;56.37;99110.88;10452117;28;20282;-70
2022/11/04 02:15:54;;;;;;;2.97;2.10;;;;;;;10.00;57.71;99131.50;10462031;28;20240;-70
2022/11/04 02:21:20;;;;;;;3.00;2.20;;;;;;;9.95;58.35;99103.50;10362186;28;20239;-70
2022/11/04 02:26:52;;;;;;;4.00;2.20;;;;;;;10.46;56.69;99098.78;10051409;28;20245;-70
2022/11/04 02:32:32;;;;;;;2.50;2.30;;;;;;;10.43;56.62;99093.88;10548875;27;1452566;-33
2022/11/04 02:37:55;;;;;;;3.43;2.00;;;;;;;10.16;56.87;99096.44;10537635;28;20226;-34
2022/11/04 02:43:19;;;;;;;4.33;2.40;;;;;;;9.89;58.12;99101.63;10538750;28;20242;-42
2022/11/04 02:48:30;;;;;;;3.17;2.00;;;;;;;9.35;58.13;99104.91;10531223;28;20234;-42
2022/11/04 02:53:40;;;;;;;3.37;2.00;;;;;;;10.41;56.33;99107.44;10508122;28;20226;-43
2022/11/04 02:59:06;;;;;;;3.17;2.13;;;;;;;9.38;57.84;99105.34;10521268;28;20328;-42
2022/11/04 03:04:25;;;;;;;5.07;2.43;;;;;;;9.98;57.10;99114.84;10540397;28;20230;-44
2022/11/04 03:09:29;;;;;;;2.80;2.00;;;;;;;9.43;57.89;99127.97;10542204;28;20230;-42
2022/11/04 03:14:48;;;;;;;2.90;1.93;;;;;;;10.05;55.86;99116.50;10541742;28;20249;-42
2022/11/04 03:19:55;;;;;;;3.70;1.77;;;;;;;9.85;56.89;99121.72;10546886;28;20225;-42
2022/11/04 03:24:57;;;;;;;2.70;1.90;;;;;;;11.49;54.35;99068.28;10509544;28;20262;-43
2022/11/04 03:30:08;;;;;;;1.93;1.60;;;;;;;10.31;56.39;99094.44;10513929;28;20648;-41
2022/11/04 03:35:12;;;;;;;1.90;1.77;;;;;;;11.02;54.40;99071.78;10494755;28;20285;-41
2022/11/04 03:40:17;;;;;;;2.97;2.40;;;;;;;9.80;57.02;99137.50;10509188;28;20227;-44
2022/11/04 03:45:18;;;;;;;4.50;2.13;;;;;;;12.29;51.92;99054.69;10493804;28;20236;-42
2022/11/04 03:50:20;;;;;;;2.33;2.10;;;;;;;9.57;56.44;99111.88;10464081;28;20242;-45
2022/11/04 03:56:00;;;;;;;2.27;2.07;;;;;;;10.53;55.62;99113.03;10512101;28;20239;-42
2022/11/04 04:01:17;;;;;;;3.40;2.10;;;;;;;10.18;56.38;99115.75;10495551;28;20678;-43
2022/11/04 04:06:27;;;;;;;2.60;2.40;;;;;;;11.53;54.06;99048.09;10487920;28;20227;-43
2022/11/04 04:11:43;;;;;;;2.87;2.13;;;;;;;11.53;53.66;99064.16;10501177;28;20227;-43
2022/11/04 04:16:47;;;;;;;3.17;2.30;;;;;;;11.32;54.19;99062.50;10502051;28;20704;-42
2022/11/04 04:21:57;;;;;;;3.20;2.20;;;;;;;11.05;54.13;99074.06;10509137;28;20245;-41
2022/11/04 04:32:25;;;;;;;2.40;2.20;;;;;;;11.01;53.46;99082.69;10511536;28;20228;-40
2022/11/04 04:37:27;;;;;;;2.23;2.07;;;;;;;10.89;53.41;99090.50;10463309;28;20270;-42
2022/11/04 04:47:56;;;;;;;2.97;2.00;;;;;;;10.94;54.55;99084.56;10439796;28;20228;-43
2022/11/04 04:52:59;;;;;;;3.20;2.20;;;;;;;10.64;54.49;99090.22;10448269;28;20227;-43
2022/11/04 04:58:01;;;;;;;4.57;2.00;;;;;;;11.17;53.76;99071.59;10441529;28;20286;-40
2022/11/04 05:03:02;;;;;;;3.87;1.80;;;;;;;10.63;54.88;99081.38;10449756;28;20638;-41
2022/11/04 05:08:05;;;;;;;2.07;1.83;;;;;;;10.66;54.69;99069.44;10431509;28;20587;-42
2022/11/04 05:13:28;;;;;;;2.30;2.10;;;;;;;10.00;56.05;99086.88;10425212;28;20266;-44
2022/11/04 05:18:30;;;;;;;3.40;2.27;;;;;;;10.29;56.01;99060.88;10468715;28;20227;-44
2022/11/04 05:23:33;;;;;;;3.87;2.30;;;;;;;10.16;56.60;99040.28;10463234;28;20231;-42
2022/11/04 05:28:35;;;;;;;6.87;2.40;;;;;;;10.35;55.92;99032.53;10471811;28;20223;-41
2022/11/04 05:33:37;;;;;;;4.10;2.20;;;;;;;11.34;54.03;98978.25;10501318;28;20241;-42
2022/11/04 05:38:39;;;;;;;2.37;2.17;;;;;;;10.98;55.05;98989.41;10512935;28;20249;-42
2022/11/04 05:43:40;;;;;;;3.37;2.00;;;;;;;10.58;55.91;99016.09;10514142;28;20245;-42
2022/11/04 05:48:42;;;;;;;2.60;2.10;;;;;;;10.58;56.02;99008.91;10494727;28;20238;-43
2022/11/04 05:53:44;;;;;;;3.80;2.40;;;;;;;10.87;54.79;99002.38;10487711;28;20734;-44
2022/11/04 05:58:46;;;;;;;2.00;1.80;;;;;;;10.98;54.90;99006.28;10511872;28;20234;-42
2022/11/04 06:03:47;;;;;;;2.70;2.33;;;;;;;9.96;56.49;99045.53;10470227;28;20755;-45
2022/11/04 06:08:50;;;;;;;3.60;2.53;;;;;;;11.27;55.03;98985.47;10507513;28;20616;-43
2022/11/04 06:13:53;;;;;;;3.57;2.40;;;;;;;10.66;55.84;99019.44;10478707;28;20247;-45
2022/11/04 06:18:55;;;;;;;2.93;2.20;;;;;;;10.68;55.04;99020.06;10473971;28;20239;-42
2022/11/04 06:24:06;;;;;;;2.20;2.00;;;;;;;10.07;56.81;99039.63;10471894;28;20239;-42
2022/11/04 06:29:08;;;;;;;3.07;2.70;;;;;;;10.60;56.03;99020.25;10499940;28;20346;-44
2022/11/04 06:34:10;;;;;;;2.60;2.40;;;;;;;10.30;56.14;99033.13;10498699;28;20334;-42
2022/11/04 06:39:11;;;;;;;2.80;2.60;;;;;;;10.50;55.13;99041.22;10494054;28;20219;-42
2022/11/04 06:44:13;;;;;;;2.57;2.40;;;;;;;10.06;56.72;99056.69;10509173;28;20719;-45
2022/11/04 06:49:18;;;;;;;2.10;2.00;;;;;;;11.73;53.17;99011.38;10466656;28;20238;-41
2022/11/04 06:54:20;;;;;;;2.57;2.00;;;;;;;10.93;55.17;99040.88;10490488;28;20697;-42
2022/11/04 06:59:22;;;;;;;1.97;1.83;;;;;;;10.62;55.53;99052.13;10511287;28;20242;-42
2022/11/04 07:04:24;;;;;;;5.07;2.10;;;;;;;10.42;56.52;99057.44;10504228;28;20241;-43
2022/11/04 07:09:26;;;;;;;3.70;2.30;;;;;;;8.60;59.11;99038.50;10511190;28;20606;-43
2022/11/04 07:14:27;;;;;;;2.73;2.47;;;;;;;9.98;57.73;99067.53;10512068;28;20646;-44
2022/11/04 07:19:29;;;;;;;2.10;1.90;;;;;;;10.55;56.52;99046.78;10511890;28;20254;-42
2022/11/04 07:24:31;;;;;;;2.50;1.90;;;;;;;9.57;58.55;99069.13;10486052;28;20257;-42
2022/11/04 07:29:33;;;;;;;1.80;1.70;;;;;;;8.88;59.40;99058.31;10502603;28;20243;-42
2022/11/04 07:34:35;;;;;;;3.20;2.17;;;;;;;9.82;58.10;99025.06;10498231;28;20234;-42
2022/11/04 07:39:36;;;;;;;2.83;2.10;;;;;;;10.63;56.16;99016.31;10493973;28;20201;-43
2022/11/04 07:44:38;;;;;;;2.57;2.37;;;;;;;10.35;56.65;99036.03;10476492;28;20239;-45
2022/11/04 07:49:40;;;;;;;2.47;2.20;;;;;;;9.76;57.07;99070.25;10476672;28;20234;-42
2022/11/04 07:54:41;;;;;;;3.57;2.43;;;;;;;10.44;56.22;99012.59;10511137;28;20230;-44
2022/11/04 07:59:43;;;;;;;4.10;2.40;;;;;;;10.20;56.16;99048.72;10517100;28;20234;-43
2022/11/04 08:04:44;;;;;;;2.33;2.00;;;;;;;10.79;55.21;99005.25;10514195;28;20242;-42
2022/11/04 08:09:46;;;;;;;5.27;2.60;;;;;;;10.78;55.43;99002.78;10516188;28;20703;-45
2022/11/04 08:14:48;;;;;;;2.63;2.00;;;;;;;9.31;57.27;99028.88;10516967;28;20241;-41
2022/11/04 08:19:49;;;;;;;2.50;2.30;;;;;;;9.72;57.10;99028.09;10511669;28;20223;-43
2022/11/04 08:24:51;;;;;;;6.33;2.80;;;;;;;11.35;54.09;98979.88;10474164;28;20562;-43
2022/11/04 08:29:53;;;;;;;7.03;2.20;;;;;;;11.49;54.14;98985.22;10483342;28;20242;-40
2022/11/04 08:34:55;;;;;;;9.70;3.07;;;;;;;11.42;53.24;99026.25;10516615;28;20707;-40
2022/11/04 08:39:56;;;;;;;7.93;3.60;;;;;;;10.75;54.05;99021.91;10508611;28;20699;-44
2022/11/04 08:44:58;;;;;;;5.67;2.73;;;;;;;11.54;53.86;99005.00;10507516;28;20281;-42
2022/11/04 08:50:00;;;;;;;10.40;3.90;;;;;;;11.92;53.49;98998.94;10481882;28;20704;-44
2022/11/04 08:55:01;;;;;;;3.80;2.70;;;;;;;12.30;51.88;98995.47;10502241;28;20660;-43
2022/11/04 09:00:04;;;;;;;3.50;2.67;;;;;;;11.35;53.00;99041.50;10500018;28;20230;-39
2022/11/04 09:05:05;;;;;;;4.83;1.80;;;;;;;10.70;54.10;99038.56;10503579;28;20237;-41
2022/11/04 09:10:08;;;;;;;2.17;2.00;;;;;;;12.26;52.13;99014.88;10493625;28;20246;-41
2022/11/04 09:15:11;;;;;;;5.10;2.60;;;;;;;12.09;52.10;99023.41;10512071;28;20277;-43
2022/11/04 09:20:13;;;;;;;2.77;2.30;;;;;;;12.49;51.87;99020.56;10514688;28;20265;-43
2022/11/04 09:25:14;;;;;;;3.60;2.20;;;;;;;11.88;52.36;99047.81;10476058;28;20246;-42
2022/11/04 09:30:16;;;;;;;2.40;1.90;;;;;;;11.60;52.97;99048.88;10479952;28;20231;-43
2022/11/04 09:35:18;;;;;;;2.80;2.00;;;;;;;11.16;53.15;99061.09;10505735;28;20716;-43
2022/11/04 09:40:23;;;;;;;2.43;2.00;;;;;;;10.56;54.23;99083.19;10513665;28;20337;-42
2022/11/04 09:45:30;;;;;;;3.87;1.90;;;;;;;11.98;52.25;99037.50;10484447;28;20235;-42
2022/11/04 09:50:49;;;;;;;4.63;1.83;;;;;;;12.10;51.68;99056.41;10494052;28;20262;-39
2022/11/04 09:56:09;;;;;;;3.77;2.17;;;;;;;11.28;52.56;99077.38;10512942;28;20439;-44
2022/11/04 10:01:20;;;;;;;4.60;2.20;;;;;;;12.15;50.87;99045.88;10474013;28;20260;-44
2022/11/04 10:07:01;;;;;;;3.77;1.97;;;;;;;12.60;50.94;99051.22;10467353;28;20234;-43
2022/11/04 10:12:24;;;;;;;3.80;2.50;;;;;;;11.40;51.74;99107.84;10475378;28;20643;-41
2022/11/04 10:18:05;;;;;;;2.40;2.20;;;;;;;12.36;50.35;99090.34;10475653;28;20588;-42
2022/11/04 10:23:26;;;;;;;6.20;2.23;;;;;;;11.90;50.77;99115.47;10472819;28;20759;-45
2022/11/04 10:28:35;;;;;;;4.57;2.17;;;;;;;11.98;51.78;99110.69;10471407;28;20230;-42
2022/11/04 10:33:41;;;;;;;7.50;2.00;;;;;;;11.33;52.77;99112.38;10488953;28;20230;-41
2022/11/04 10:38:50;;;;;;;5.80;2.80;;;;;;;12.81;50.06;99063.50;10489708;28;20263;-45
2022/11/04 10:44:04;;;;;;;4.70;2.67;;;;;;;13.18;49.95;99052.91;10487536;28;20453;-43
2022/11/04 10:49:27;;;;;;;4.50;2.40;;;;;;;13.87;49.87;99030.53;10485562;28;20235;-42
2022/11/04 10:54:32;;;;;;;6.00;2.60;;;;;;;13.48;49.81;99025.38;10507355;28;20329;-43
2022/11/04 10:59:53;;;;;;;4.80;2.30;;;;;;;14.13;49.48;99002.53;10510656;28;20293;-40
2022/11/04 11:06:18;;;;;;;4.53;2.57;;;;;;;10.64;55.50;99018.78;10476933;27;21320;-71
2022/11/04 11:11:44;;;;;;;8.90;3.20;;;;;;;11.58;54.07;99010.78;10443823;27;20235;-70
2022/11/04 11:16:47;;;;;;;5.00;2.97;;;;;;;11.76;53.20;99020.84;10425651;28;20232;-69
2022/11/04 11:21:51;;;;;;;5.03;2.70;;;;;;;11.26;53.60;99029.34;10411043;28;20323;-69
2022/11/04 11:26:59;;;;;;;6.70;2.60;;;;;;;12.39;52.13;98987.16;10412297;28;20228;-69
2022/11/04 11:32:01;;;;;;;5.20;2.80;;;;;;;11.50;52.32;99011.00;10419366;28;20232;-69
2022/11/04 11:37:04;;;;;;;4.83;2.67;;;;;;;12.23;52.32;98983.09;10425815;28;20755;-70
2022/11/04 11:42:17;;;;;;;3.73;2.30;;;;;;;13.46;50.61;98971.84;10430943;28;20240;-69
2022/11/04 11:47:21;;;;;;;3.47;2.60;;;;;;;13.65;49.44;98975.38;10407879;28;20229;-70
2022/11/04 11:52:28;;;;;;;4.20;2.20;;;;;;;13.30;50.06;98983.19;10425702;28;20228;-70
2022/11/04 11:58:00;;;;;;;7.33;2.67;;;;;;;13.30;50.86;98980.50;10412934;28;20266;-70
2022/11/04 12:03:36;;;;;;;4.33;2.23;;;;;;;12.54;50.67;98979.66;10415950;28;20290;-70
2022/11/04 12:09:07;;;;;;;10.27;2.30;;;;;;;12.68;50.73;98973.13;10403713;28;20319;-70
2022/11/04 12:14:32;;;;;;;4.70;2.97;;;;;;;12.54;50.51;98993.88;10380456;28;20233;-70
2022/11/04 12:19:54;;;;;;;6.50;3.03;;;;;;;13.09;50.70;98985.22;10358576;28;20250;-70
2022/11/04 12:25:25;;;;;;;3.60;2.33;;;;;;;12.80;49.95;98994.72;10365091;28;20241;-70
2022/11/04 12:30:32;;;;;;;5.97;2.37;;;;;;;13.00;49.85;98997.25;10365006;28;20295;-70
2022/11/04 12:35:59;;;;;;;5.83;2.37;;;;;;;13.17;49.89;98984.09;10379053;28;20327;-69
2022/11/04 12:41:04;;;;;;;3.53;2.13;;;;;;;11.64;51.27;99012.63;10380082;28;20256;-69
2022/11/04 12:46:36;;;;;;;4.43;2.33;;;;;;;11.83;51.49;99012.78;10376842;28;20264;-70
2022/11/04 12:51:44;;;;;;;5.40;2.50;;;;;;;12.80;50.11;98975.94;10388000;28;20749;-70
2022/11/04 12:56:55;;;;;;;4.37;2.60;;;;;;;12.76;49.48;98979.31;10395010;28;20723;-72
2022/11/04 13:02:06;;;;;;;4.43;2.30;;;;;;;13.72;48.47;98961.03;10385235;28;20280;-72
2022/11/04 13:07:14;;;;;;;10.53;3.57;;;;;;;13.63;48.24;98976.63;10377854;28;20255;-73
2022/11/04 13:12:20;;;;;;;4.53;2.60;;;;;;;13.07;50.02;98999.88;10393285;28;20245;-73
2022/11/04 13:17:42;;;;;;;5.23;2.03;;;;;;;12.45;49.47;99013.09;10394829;28;20344;-73
2022/11/04 13:22:47;;;;;;;3.43;2.33;;;;;;;13.42;48.42;98976.03;10385314;28;20243;-73
2022/11/04 13:27:50;;;;;;;5.13;2.30;;;;;;;13.39;48.16;98989.91;10369990;28;20275;-72
2022/11/04 13:33:07;;;;;;;4.00;2.20;;;;;;;13.66;47.57;99003.06;10359293;28;20236;-71
2022/11/04 13:38:17;;;;;;;7.33;2.43;;;;;;;13.80;47.23;99007.25;10361727;28;20736;-70
2022/11/04 13:43:37;;;;;;;5.30;2.60;;;;;;;13.01;49.71;99051.78;10359889;28;20233;-71
2022/11/04 13:48:57;;;;;;;5.20;2.90;;;;;;;11.87;54.84;99054.22;10358813;28;20232;-71
2022/11/04 13:53:58;;;;;;;2.93;2.40;;;;;;;12.13;54.40;99030.00;10358040;28;20243;-70
2022/11/04 13:59:06;;;;;;;4.33;2.30;;;;;;;13.12;52.81;98965.13;10359197;28;20275;-70
2022/11/04 14:04:29;;;;;;;5.33;2.63;;;;;;;13.31;51.89;98971.38;10361054;28;20233;-69
2022/11/04 14:09:49;;;;;;;5.13;3.07;;;;;;;13.37;52.40;98973.19;10384699;28;20228;-71
2022/11/04 14:15:02;;;;;;;6.90;2.50;;;;;;;14.31;49.60;98975.59;10381895;28;20232;-74
2022/11/04 14:20:05;;;;;;;3.93;1.80;;;;;;;13.88;49.52;99002.63;10381270;28;20240;-70
2022/11/04 14:25:28;;;;;;;6.23;2.57;;;;;;;14.64;48.26;98976.94;10375662;28;20457;-70
2022/11/04 14:30:42;;;;;;;4.63;3.13;;;;;;;14.73;48.23;98980.16;10385693;28;20260;-68
2022/11/04 14:35:44;;;;;;;8.57;2.77;;;;;;;14.30;48.59;99014.31;10389225;28;20237;-68
2022/11/04 14:41:11;;;;;;;4.37;2.40;;;;;;;13.45;50.89;99042.78;10387635;28;20243;-69
2022/11/04 14:46:19;;;;;;;4.60;2.50;;;;;;;14.82;48.80;98977.97;10372617;28;20240;-71
2022/11/04 14:51:26;;;;;;;3.40;2.20;;;;;;;15.17;47.67;98985.25;10403877;22;20290;-38
2022/11/04 14:56:28;;;;;;;8.77;3.20;;;;;;;14.65;47.51;99016.31;10391382;28;20252;-38
2022/11/04 15:01:33;;;;;;;6.30;2.87;;;;;;;14.88;47.33;99009.34;10402709;28;20713;-39
2022/11/04 15:06:36;;;;;;;9.37;2.50;;;;;;;15.24;47.33;99016.41;10397826;28;20236;-37
2022/11/04 15:17:33;;;;;;;6.97;2.90;;;;;;;14.63;48.09;99023.78;10397808;28;20299;-44
2022/11/04 15:22:35;;;;;;;7.53;3.00;;;;;;;14.80;48.16;99021.25;10395108;28;20225;-36
2022/11/04 15:27:39;;;;;;;9.07;3.67;;;;;;;14.92;47.77;99032.91;10363356;28;20233;-38
2022/11/04 15:32:52;;;;;;;4.83;2.87;;;;;;;14.82;48.83;99002.22;10394579;28;20238;-36
2022/11/04 15:37:55;;;;;;;6.27;3.80;;;;;;;15.92;46.42;98997.94;10389765;28;20245;-39
2022/11/04 15:42:59;;;;;;;9.10;3.67;;;;;;;16.00;46.29;99011.06;10398804;28;20237;-37
2022/11/04 15:48:22;;;;;;;8.27;3.90;;;;;;;14.12;49.68;99085.13;10384757;28;20713;-39
2022/11/04 15:53:23;;;;;;;3.90;2.77;;;;;;;14.30;49.64;99045.78;10389949;28;20726;-36
2022/11/04 15:58:26;;;;;;;5.60;2.60;;;;;;;14.25;49.05;99067.16;10359145;28;20220;-39
2022/11/04 16:03:28;;;;;;;9.33;3.63;;;;;;;14.84;48.99;99033.22;10370390;28;20238;-41
2022/11/04 16:08:31;;;;;;;11.00;7.67;;;;;;;14.41;48.58;99071.94;10363549;28;20213;-44
2022/11/04 16:13:32;;;;;;;10.90;8.17;;;;;;;15.53;47.29;99040.78;10365934;28;20545;-40
2022/11/04 16:18:35;;;;;;;15.23;8.43;;;;;;;13.67;50.62;99121.13;10367295;28;20214;-36
2022/11/04 16:23:53;;;;;;;13.03;9.50;;;;;;;13.11;51.41;99119.28;10355692;28;20230;-36
2022/11/04 16:28:58;;;;;;;13.00;9.30;;;;;;;15.25;48.58;99026.16;10356018;28;20222;-38
2022/11/04 16:34:00;;;;;;;10.93;6.67;;;;;;;14.50;49.39;99083.22;10358566;28;20229;-39
2022/11/04 16:39:07;;;;;;;9.77;5.93;;;;;;;14.60;49.16;99061.94;10356260;28;20679;-37
2022/11/04 16:44:19;;;;;;;11.27;6.23;;;;;;;13.83;48.99;99095.56;10362456;28;20261;-38
2022/11/04 16:49:21;;;;;;;6.07;4.27;;;;;;;12.97;50.31;99128.47;10362133;28;20240;-40
2022/11/04 16:54:23;;;;;;;3.37;2.60;;;;;;;13.67;49.48;99091.56;10361174;28;20233;-40
2022/11/04 16:59:25;;;;;;;3.47;2.37;;;;;;;12.49;51.25;99148.53;10365786;28;21182;-37
2022/11/04 17:04:26;;;;;;;5.40;3.60;;;;;;;13.61;48.08;99122.00;10348635;28;20299;-42
2022/11/04 17:09:28;;;;;;;5.30;3.60;;;;;;;14.60;47.28;99091.56;10353352;28;20228;-42
2022/11/04 17:14:29;;;;;;;7.10;4.97;;;;;;;13.82;48.42;99155.75;10365220;28;20619;-45
2022/11/04 17:19:31;;;;;;;10.13;6.53;;;;;;;13.32;49.08;99190.66;10367188;28;20230;-41
2022/11/04 17:24:36;;;;;;;5.57;3.50;;;;;;;13.50;48.25;99175.66;10378291;28;20291;-40
2022/11/04 17:29:38;;;;;;;3.20;2.90;;;;;;;14.01;47.38;99148.50;10361603;28;20597;-41
2022/11/04 17:34:39;;;;;;;4.17;3.23;;;;;;;13.66;47.99;99200.13;10366813;28;20244;-41
2022/11/04 17:39:41;;;;;;;30.87;22.50;;;;;;;13.85;47.93;99192.13;10368861;28;20621;-39
2022/11/04 17:44:43;;;;;;;22.03;17.50;;;;;;;13.40;48.89;99230.72;10371485;28;20229;-36
2022/11/04 17:49:44;;;;;;;10.27;7.53;;;;;;;14.45;46.46;99174.59;10357779;28;20213;-38
2022/11/04 17:54:46;;;;;;;12.90;7.67;;;;;;;13.87;47.38;99229.53;10346080;28;20601;-39
2022/11/04 17:59:48;;;;;;;17.67;10.60;;;;;;;12.68;49.64;99254.16;10367291;28;20237;-38
2022/11/04 18:04:49;;;;;;;7.77;4.53;;;;;;;12.63;49.93;99262.03;10363780;28;20233;-37
2022/11/04 18:09:51;;;;;;;6.93;4.53;;;;;;;11.57;51.59;99232.31;10329834;28;20601;-39
2022/11/04 18:14:53;;;;;;;7.30;3.70;;;;;;;11.86;51.64;99251.78;10354436;28;20280;-39
2022/11/04 18:19:54;;;;;;;7.60;4.80;;;;;;;12.06;51.75;99245.59;10371580;28;20233;-36
2022/11/04 18:24:56;;;;;;;4.83;3.40;;;;;;;11.96;52.29;99246.84;10376395;28;20229;-33
2022/11/04 18:29:58;;;;;;;5.63;3.60;;;;;;;11.97;52.50;99245.78;10367464;28;20272;-41
2022/11/04 18:35:00;;;;;;;7.17;4.80;;;;;;;12.16;52.50;99228.06;10367879;28;20240;-44
2022/11/04 18:40:01;;;;;;;3.23;2.70;;;;;;;12.14;52.68;99248.06;10362099;28;20356;-43
2022/11/04 18:45:03;;;;;;;3.30;2.97;;;;;;;12.78;50.83;99240.31;10359241;28;20618;-40
2022/11/04 18:50:05;;;;;;;4.63;3.90;;;;;;;12.41;51.65;99254.19;10385654;28;20677;-45
2022/11/04 18:55:08;;;;;;;5.77;4.40;;;;;;;13.57;50.57;99177.25;10386370;28;20236;-39
2022/11/04 19:00:13;;;;;;;7.73;5.73;;;;;;;12.97;50.80;99243.94;10382721;28;20623;-42
2022/11/04 19:05:17;;;;;;;8.57;5.83;;;;;;;14.80;47.92;99173.97;10361140;28;20221;-42
2022/11/04 19:10:21;;;;;;;7.13;5.90;;;;;;;13.85;49.37;99256.66;10361312;28;20429;-41
2022/11/04 19:15:24;;;;;;;16.30;11.43;;;;;;;13.56;49.96;99285.00;10349592;28;20237;-38
2022/11/04 19:20:26;;;;;;;11.23;7.10;;;;;;;14.82;47.82;99237.34;10348673;28;20245;-37
2022/11/04 19:25:28;;;;;;;12.40;6.83;;;;;;;13.04;50.92;99319.94;10332115;28;20611;-38
2022/11/04 19:30:30;;;;;;;8.07;4.37;;;;;;;10.83;56.58;99279.50;10373583;28;20773;-43
2022/11/04 19:35:31;;;;;;;7.70;4.53;;;;;;;12.11;54.33;99269.91;10373919;28;20237;-41
2022/11/04 19:40:33;;;;;;;8.47;5.30;;;;;;;12.05;53.40;99314.50;10366062;28;20728;-41
2022/11/04 19:45:40;;;;;;;6.67;5.00;;;;;;;12.39;53.15;99318.00;10373151;28;20765;-45
2022/11/04 19:50:47;;;;;;;9.30;4.43;;;;;;;11.41;55.51;99307.75;10374148;28;20360;-39
2022/11/04 19:55:53;;;;;;;5.13;4.47;;;;;;;12.85;53.11;99262.56;10397588;28;20655;-42
2022/11/04 20:00:54;;;;;;;6.07;4.60;;;;;;;12.35;54.47;99295.28;10409187;28;20233;-43
2022/11/04 20:05:56;;;;;;;8.33;4.33;;;;;;;11.86;55.01;99336.72;10382344;28;20264;-35
2022/11/04 20:11:02;;;;;;;6.93;3.70;;;;;;;11.42;56.28;99342.38;10392481;28;20236;-38
2022/11/04 20:16:13;;;;;;;7.33;4.10;;;;;;;12.29;55.19;99282.72;10369720;28;20240;-39
2022/11/04 20:21:17;;;;;;;7.43;4.50;;;;;;;12.71;53.71;99264.50;10387543;28;20228;-40
2022/11/04 20:26:23;;;;;;;5.00;3.97;;;;;;;13.32;51.92;99275.84;10385044;28;20245;-39
2022/11/04 20:31:27;;;;;;;5.03;4.57;;;;;;;12.32;53.42;99354.72;10389827;28;20705;-37
2022/11/04 20:36:29;;;;;;;5.70;4.10;;;;;;;12.47;53.86;99328.53;10383565;28;20258;-39
2022/11/04 20:41:32;;;;;;;6.30;4.80;;;;;;;10.75;58.39;99351.06;10398616;28;20244;-36
2022/11/04 20:46:34;;;;;;;8.10;5.70;;;;;;;11.00;56.47;99386.25;10370117;28;20584;-44
2022/11/04 20:51:43;;;;;;;5.20;4.70;;;;;;;10.91;57.33;99377.53;10394308;28;20733;-40
2022/11/04 20:56:52;;;;;;;8.33;5.53;;;;;;;10.99;57.20;99379.25;10389153;28;20719;-42
2022/11/04 21:01:53;;;;;;;7.20;5.20;;;;;;;12.06;55.01;99316.13;10362126;28;20244;-39
2022/11/04 21:06:55;;;;;;;9.33;4.87;;;;;;;12.55;52.90;99349.81;10375126;28;20332;-42
2022/11/04 21:11:57;;;;;;;8.47;5.67;;;;;;;10.68;57.02;99394.66;10368348;28;20738;-43
2022/11/04 21:17:00;;;;;;;7.03;5.03;;;;;;;11.00;56.05;99429.94;10370192;28;20237;-43
2022/11/04 21:22:02;;;;;;;6.23;4.77;;;;;;;11.57;55.26;99401.16;10372786;28;20237;-43
2022/11/04 21:27:03;;;;;;;6.50;4.50;;;;;;;11.25;56.85;99384.75;10371243;28;20236;-42
2022/11/04 21:32:05;;;;;;;4.60;3.80;;;;;;;10.31;57.60;99420.69;10373859;28;20233;-43
2022/11/04 21:37:07;;;;;;;5.53;3.53;;;;;;;10.56;57.41;99430.97;10394072;28;20241;-43
2022/11/04 21:42:08;;;;;;;3.73;2.73;;;;;;;12.18;54.79;99356.56;10374993;28;20229;-43
2022/11/04 21:47:10;;;;;;;3.20;2.90;;;;;;;11.79;54.80;99406.41;10362306;28;20609;-43
2022/11/04 21:52:12;;;;;;;3.17;2.87;;;;;;;12.04;54.19;99400.50;10363885;28;20255;-41
2022/11/04 21:57:13;;;;;;;3.00;2.60;;;;;;;9.76;58.92;99427.50;10395401;28;20232;-40
2022/11/04 22:02:15;;;;;;;3.87;2.90;;;;;;;11.44;55.91;99449.34;10402656;28;20614;-43
2022/11/04 22:08:15;;;;;;;3.27;2.93;;;;;;;10.84;57.06;99465.84;10384951;28;20774;-41
2022/11/04 22:12:38;;;;;;;3.63;2.60;;;;;;;11.15;56.86;99451.22;10361735;28;20226;-43
2022/11/04 22:17:40;;;;;;;3.57;3.23;;;;;;;11.66;55.58;99419.75;10357465;28;20241;-43
2022/11/04 22:22:41;;;;;;;4.27;3.20;;;;;;;11.30;55.46;99483.25;10370638;28;20233;-43
2022/11/04 22:27:43;;;;;;;4.07;3.30;;;;;;;12.52;53.30;99446.81;10370605;28;20233;-43
2022/11/04 22:32:45;;;;;;;4.00;3.50;;;;;;;12.08;54.70;99476.81;10374826;28;20524;-43
2022/11/04 22:37:47;;;;;;;5.40;3.43;;;;;;;11.35;55.43;99523.66;10373548;28;20225;-43
2022/11/04 22:42:50;;;;;;;3.60;3.30;;;;;;;12.66;53.12;99441.47;10364073;28;20205;-42
2022/11/04 22:47:52;;;;;;;4.23;3.17;;;;;;;10.98;56.11;99495.38;10364695;28;20221;-43
2022/11/04 22:52:53;;;;;;;4.00;3.60;;;;;;;11.57;54.99;99528.97;10365600;28;20229;-42
2022/11/04 22:57:56;;;;;;;4.07;3.53;;;;;;;11.97;55.02;99495.16;10363160;28;20284;-43
2022/11/04 23:02:57;;;;;;;7.30;3.30;;;;;;;11.51;55.65;99513.69;10364241;28;20220;-43
2022/11/04 23:08:00;;;;;;;4.70;3.77;;;;;;;11.09;56.00;99534.22;10375739;28;20253;-43
2022/11/04 23:18:41;;;;;;;5.33;3.83;;;;;;;12.08;54.61;99468.78;10373294;28;20258;-43
2022/11/04 23:39:45;;;;;;;5.43;4.73;;;;;;;11.52;56.23;99504.59;10373584;28;20229;-43
